Time;durP1;ratioP1;P1;durP2;ratioP2;P2;SDS_P1;SDS_P2;PMS_P1;PMS_P2;Temp;Humidity;BMP_temperature;BMP_pressure;BME280_temperature;BME280_humidity;BME280_pressure;Samples;Min_cycle;Max_cycle;Signal;HPM_P1;HPM_P2
2022/03/05 00:02:11;;;;;;;18.35;7.97;;;;;;;;;;5027985;28;20014;-59
2022/03/05 00:04:36;;;;;;;18.70;8.18;;;;;;;;;;5027810;28;20104;-56
2022/03/05 00:07:02;;;;;;;17.08;8.75;;;;;;;;;;5026735;28;20083;-58
2022/03/05 00:09:27;;;;;;;20.75;8.73;;;;;;;;;;5027635;28;20068;-53
2022/03/05 00:11:53;;;;;;;20.33;7.82;;;;;;;;;;5026680;28;20493;-59
2022/03/05 00:14:18;;;;;;;25.25;9.48;;;;;;;;;;5026574;28;20033;-57
2022/03/05 00:16:43;;;;;;;19.20;8.45;;;;;;;;;;5025347;28;20465;-57
2022/03/05 00:19:09;;;;;;;21.13;8.05;;;;;;;;;;5026759;28;20427;-57
2022/03/05 00:21:35;;;;;;;20.98;8.90;;;;;;;;;;5026383;28;20032;-53
2022/03/05 00:24:00;;;;;;;18.92;8.40;;;;;;;;;;5027305;28;20111;-59
2022/03/05 00:26:25;;;;;;;23.88;8.25;;;;;;;;;;5027058;28;20049;-58
2022/03/05 00:28:51;;;;;;;20.70;8.98;;;;;;;;;;5027951;28;20481;-58
2022/03/05 00:31:17;;;;;;;22.98;8.80;;;;;;;;;;5040229;28;21414;-57
2022/03/05 00:33:42;;;;;;;25.05;9.00;;;;;;;;;;5024924;28;20025;-52
2022/03/05 00:36:08;;;;;;;22.30;8.73;;;;;;;;;;5027073;28;20056;-59
2022/03/05 00:38:33;;;;;;;20.33;8.45;;;;;;;;;;5027276;28;20104;-58
2022/03/05 00:40:58;;;;;;;22.00;8.23;;;;;;;;;;5028501;28;20021;-58
2022/03/05 00:43:24;;;;;;;18.48;8.20;;;;;;;;;;5026231;28;20124;-56
2022/03/05 00:45:49;;;;;;;20.63;7.82;;;;;;;;;;5027288;28;20429;-56
2022/03/05 00:48:15;;;;;;;19.05;8.80;;;;;;;;;;5026044;28;20041;-57
2022/03/05 00:50:40;;;;;;;19.00;8.30;;;;;;;;;;5027317;28;20454;-59
2022/03/05 00:53:06;;;;;;;20.10;8.20;;;;;;;;;;5026768;28;20036;-57
2022/03/05 00:55:32;;;;;;;19.05;8.45;;;;;;;;;;5028993;28;20083;-56
2022/03/05 00:57:57;;;;;;;20.85;8.35;;;;;;;;;;5026846;28;20041;-57
2022/03/05 01:00:23;;;;;;;20.90;8.30;;;;;;;;;;5024341;28;20641;-56
2022/03/05 01:02:48;;;;;;;23.92;8.77;;;;;;;;;;5027304;28;20461;-52
2022/03/05 01:05:14;;;;;;;18.55;8.20;;;;;;;;;;5026177;28;20747;-57
2022/03/05 01:07:39;;;;;;;19.80;7.70;;;;;;;;;;5026347;28;20109;-58
2022/03/05 01:10:06;;;;;;;20.05;7.82;;;;;;;;;;5026488;28;20084;-56
2022/03/05 01:12:31;;;;;;;17.10;7.68;;;;;;;;;;5027334;28;20056;-58
2022/03/05 01:14:57;;;;;;;19.70;8.35;;;;;;;;;;5026503;28;20708;-54
2022/03/05 01:17:23;;;;;;;19.63;7.90;;;;;;;;;;5027291;28;20463;-57
2022/03/05 01:19:48;;;;;;;20.73;8.57;;;;;;;;;;5025010;28;20416;-56
2022/03/05 01:22:14;;;;;;;18.10;7.95;;;;;;;;;;5025767;28;20060;-53
2022/03/05 01:24:39;;;;;;;20.63;8.10;;;;;;;;;;5024855;28;20033;-55
2022/03/05 01:27:04;;;;;;;20.42;8.80;;;;;;;;;;5027342;28;20028;-57
2022/03/05 01:29:30;;;;;;;17.05;8.00;;;;;;;;;;5023838;28;20370;-61
2022/03/05 01:31:56;;;;;;;20.80;8.55;;;;;;;;;;5026791;28;20025;-58
2022/03/05 01:34:21;;;;;;;17.20;7.75;;;;;;;;;;5024579;28;20026;-58
2022/03/05 01:36:47;;;;;;;22.38;8.10;;;;;;;;;;5026557;28;20072;-60
2022/03/05 01:39:12;;;;;;;19.55;8.75;;;;;;;;;;5026356;28;20083;-60
2022/03/05 01:41:45;;;;;;;17.20;7.82;;;;;;;;;;5025444;28;20083;-56
2022/03/05 01:44:11;;;;;;;24.15;8.95;;;;;;;;;;5024452;28;20037;-57
2022/03/05 01:46:38;;;;;;;20.70;8.27;;;;;;;;;;5025217;28;20033;-56
2022/03/05 01:49:07;;;;;;;18.63;7.88;;;;;;;;;;5024903;28;20033;-57
2022/03/05 01:51:33;;;;;;;18.85;7.65;;;;;;;;;;5025199;28;20025;-57
2022/03/05 01:53:58;;;;;;;19.00;8.20;;;;;;;;;;5024129;28;20025;-58
2022/03/05 01:56:25;;;;;;;19.70;8.40;;;;;;;;;;5025477;28;21233;-56
2022/03/05 01:58:51;;;;;;;20.52;9.23;;;;;;;;;;5024770;28;20037;-56
2022/03/05 02:01:21;;;;;;;21.38;8.10;;;;;;;;;;5025041;28;20037;-59
2022/03/05 02:03:47;;;;;;;20.20;8.85;;;;;;;;;;5023940;28;20584;-55
2022/03/05 02:06:13;;;;;;;18.45;7.82;;;;;;;;;;5026077;28;20099;-58
2022/03/05 02:08:38;;;;;;;20.30;8.40;;;;;;;;;;5027588;28;20107;-58
2022/03/05 02:11:04;;;;;;;18.83;7.55;;;;;;;;;;5025118;28;20103;-59
2022/03/05 02:13:29;;;;;;;16.85;7.55;;;;;;;;;;5026544;28;20025;-59
2022/03/05 02:15:58;;;;;;;22.80;9.05;;;;;;;;;;5023519;28;20029;-58
2022/03/05 02:18:25;;;;;;;21.10;7.40;;;;;;;;;;5026318;28;20098;-61
2022/03/05 02:20:51;;;;;;;24.80;8.30;;;;;;;;;;5024292;28;20029;-60
2022/03/05 02:23:17;;;;;;;17.55;8.07;;;;;;;;;;5025575;28;20037;-59
2022/03/05 02:25:57;;;;;;;18.52;8.63;;;;;;;;;;5022729;28;20025;-58
2022/03/05 02:28:24;;;;;;;21.27;7.13;;;;;;;;;;5025508;28;20033;-59
2022/03/05 02:30:50;;;;;;;21.15;8.00;;;;;;;;;;5022678;28;20036;-58
2022/03/05 02:33:16;;;;;;;19.85;8.27;;;;;;;;;;5025017;28;20033;-59
2022/03/05 02:35:45;;;;;;;20.23;8.27;;;;;;;;;;5026727;28;20030;-59
2022/03/05 02:38:13;;;;;;;18.63;8.23;;;;;;;;;;5023718;28;20033;-59
2022/03/05 02:40:40;;;;;;;18.50;8.50;;;;;;;;;;5008928;28;20033;-60
2022/03/05 02:43:07;;;;;;;18.88;7.63;;;;;;;;;;5023503;28;20117;-60
2022/03/05 02:45:33;;;;;;;19.50;8.32;;;;;;;;;;5025847;28;20536;-57
2022/03/05 02:47:58;;;;;;;23.17;8.52;;;;;;;;;;5023802;28;20041;-59
2022/03/05 02:50:23;;;;;;;18.08;8.38;;;;;;;;;;5024693;28;20107;-59
2022/03/05 02:52:49;;;;;;;20.40;7.88;;;;;;;;;;5025128;28;20071;-59
2022/03/05 02:55:15;;;;;;;15.45;7.65;;;;;;;;;;5025604;28;20124;-58
2022/03/05 02:57:40;;;;;;;19.80;8.73;;;;;;;;;;5023102;28;20033;-59
2022/03/05 03:00:06;;;;;;;19.05;8.43;;;;;;;;;;5023900;28;20107;-59
2022/03/05 03:02:31;;;;;;;19.38;8.98;;;;;;;;;;5025425;28;20033;-59
2022/03/05 03:04:57;;;;;;;18.55;8.02;;;;;;;;;;5025073;28;20155;-59
2022/03/05 03:07:22;;;;;;;21.90;8.00;;;;;;;;;;5024873;28;20108;-58
2022/03/05 03:09:47;;;;;;;17.52;7.38;;;;;;;;;;5026127;28;20033;-59
2022/03/05 03:12:13;;;;;;;18.52;8.15;;;;;;;;;;5025438;28;20127;-59
2022/03/05 03:14:38;;;;;;;17.15;7.97;;;;;;;;;;5024302;28;20022;-57
2022/03/05 03:17:03;;;;;;;18.42;8.30;;;;;;;;;;5024327;28;20029;-61
2022/03/05 03:19:29;;;;;;;18.58;8.13;;;;;;;;;;5024975;28;20029;-58
2022/03/05 03:21:54;;;;;;;19.77;8.77;;;;;;;;;;5024493;28;20489;-60
2022/03/05 03:24:20;;;;;;;24.95;9.18;;;;;;;;;;5023456;28;20080;-58
2022/03/05 03:26:45;;;;;;;21.65;8.55;;;;;;;;;;5023211;28;20389;-61
2022/03/05 03:29:11;;;;;;;24.02;8.95;;;;;;;;;;5027617;28;20029;-61
2022/03/05 03:31:40;;;;;;;21.27;8.50;;;;;;;;;;5021958;28;20025;-58
2022/03/05 03:34:05;;;;;;;20.25;8.88;;;;;;;;;;5030024;28;20122;-58
2022/03/05 03:36:30;;;;;;;19.63;8.70;;;;;;;;;;5028977;28;20064;-57
2022/03/05 03:38:56;;;;;;;20.70;8.90;;;;;;;;;;5030008;28;20026;-58
2022/03/05 03:41:21;;;;;;;20.95;8.88;;;;;;;;;;5027150;28;20534;-55
2022/03/05 03:43:47;;;;;;;20.02;8.88;;;;;;;;;;5029931;28;20052;-57
2022/03/05 03:46:13;;;;;;;23.52;9.80;;;;;;;;;;5028397;28;20097;-59
2022/03/05 03:48:38;;;;;;;20.02;8.57;;;;;;;;;;5029516;28;20044;-58
2022/03/05 03:51:04;;;;;;;17.65;8.10;;;;;;;;;;5026677;28;20025;-55
2022/03/05 03:53:29;;;;;;;21.45;8.93;;;;;;;;;;5028061;28;20108;-51
2022/03/05 03:55:55;;;;;;;19.00;8.18;;;;;;;;;;5026562;28;20056;-58
2022/03/05 03:58:21;;;;;;;17.30;7.85;;;;;;;;;;5025052;28;20042;-58
2022/03/05 04:00:47;;;;;;;18.13;8.20;;;;;;;;;;5027281;28;20034;-59
2022/03/05 04:03:12;;;;;;;20.13;9.15;;;;;;;;;;5028547;28;20393;-55
2022/03/05 04:05:37;;;;;;;23.50;8.90;;;;;;;;;;5026520;28;20044;-59
2022/03/05 04:10:47;;;;;;;21.23;9.07;;;;;;;;;;5027869;28;20144;-57
2022/03/05 04:13:12;;;;;;;20.77;9.10;;;;;;;;;;5026154;28;20041;-59
2022/03/05 04:15:38;;;;;;;23.63;9.55;;;;;;;;;;5028913;28;20433;-53
2022/03/05 04:18:04;;;;;;;22.50;8.98;;;;;;;;;;5027188;28;20495;-58
2022/03/05 04:20:29;;;;;;;18.27;8.15;;;;;;;;;;5029051;28;20033;-60
2022/03/05 04:22:55;;;;;;;21.00;9.07;;;;;;;;;;5027816;28;20025;-57
2022/03/05 04:25:20;;;;;;;19.48;9.13;;;;;;;;;;5027243;28;20093;-57
2022/03/05 04:27:45;;;;;;;27.02;9.85;;;;;;;;;;5028858;28;20057;-58
2022/03/05 04:30:11;;;;;;;21.80;8.52;;;;;;;;;;5029197;28;20040;-54
2022/03/05 04:32:38;;;;;;;21.17;8.38;;;;;;;;;;5027176;28;20033;-55
2022/03/05 04:35:04;;;;;;;20.73;7.95;;;;;;;;;;5027314;28;20045;-57
2022/03/05 04:37:30;;;;;;;21.75;9.23;;;;;;;;;;5027634;28;20033;-55
2022/03/05 04:39:55;;;;;;;18.15;8.30;;;;;;;;;;5026129;28;20103;-55
2022/03/05 04:42:21;;;;;;;21.73;9.25;;;;;;;;;;5029523;28;20068;-56
2022/03/05 04:44:46;;;;;;;20.58;8.48;;;;;;;;;;5025418;28;20037;-59
2022/03/05 04:47:11;;;;;;;17.67;7.80;;;;;;;;;;5027376;28;20120;-53
2022/03/05 04:49:37;;;;;;;20.20;8.95;;;;;;;;;;5026037;28;20079;-53
2022/03/05 04:52:02;;;;;;;22.00;9.35;;;;;;;;;;5026820;28;20033;-50
2022/03/05 04:54:30;;;;;;;21.92;9.85;;;;;;;;;;5027221;28;20030;-57
2022/03/05 04:56:56;;;;;;;21.63;9.43;;;;;;;;;;5027859;28;20025;-57
2022/03/05 04:59:22;;;;;;;23.35;10.10;;;;;;;;;;5026448;28;20119;-53
2022/03/05 05:01:47;;;;;;;23.67;9.43;;;;;;;;;;5025270;28;20690;-46
2022/03/05 05:04:13;;;;;;;19.23;9.13;;;;;;;;;;5026448;28;20190;-50
2022/03/05 05:06:38;;;;;;;21.42;9.57;;;;;;;;;;5026592;28;20036;-47
2022/03/05 05:09:04;;;;;;;22.23;9.65;;;;;;;;;;5026458;28;20140;-49
2022/03/05 05:11:30;;;;;;;25.25;10.00;;;;;;;;;;5024621;28;20787;-47
2022/03/05 05:13:55;;;;;;;22.73;10.32;;;;;;;;;;5027265;28;20152;-46
2022/03/05 05:16:21;;;;;;;22.27;9.07;;;;;;;;;;5026080;28;20029;-45
2022/03/05 05:21:30;;;;;;;23.67;9.27;;;;;;;;;;5026195;28;20636;-49
2022/03/05 05:23:56;;;;;;;21.35;8.63;;;;;;;;;;5025891;28;20025;-45
2022/03/05 05:26:21;;;;;;;21.60;9.25;;;;;;;;;;5026813;28;20236;-48
2022/03/05 05:28:48;;;;;;;23.48;9.90;;;;;;;;;;5025299;28;20392;-51
2022/03/05 05:31:13;;;;;;;21.83;9.00;;;;;;;;;;5025395;28;20033;-50
2022/03/05 05:33:43;;;;;;;24.15;9.23;;;;;;;;;;5024408;28;20033;-50
2022/03/05 05:36:09;;;;;;;22.13;9.02;;;;;;;;;;5024925;28;20496;-44
2022/03/05 05:38:34;;;;;;;21.50;9.85;;;;;;;;;;5024692;28;20121;-47
2022/03/05 05:41:00;;;;;;;20.50;9.27;;;;;;;;;;5024988;28;20025;-46
2022/03/05 05:43:26;;;;;;;24.33;9.50;;;;;;;;;;5026445;28;20033;-47
2022/03/05 05:45:51;;;;;;;21.95;8.45;;;;;;;;;;5025868;28;20037;-48
2022/03/05 05:48:23;;;;;;;20.55;9.30;;;;;;;;;;5024510;28;20040;-53
2022/03/05 05:50:48;;;;;;;23.45;10.02;;;;;;;;;;5024387;28;21526;-51
2022/03/05 05:53:14;;;;;;;26.52;9.90;;;;;;;;;;5024664;28;20037;-48
2022/03/05 05:55:39;;;;;;;21.75;8.88;;;;;;;;;;5025326;28;20308;-51
2022/03/05 05:58:05;;;;;;;20.85;9.70;;;;;;;;;;5025988;28;20073;-49
2022/03/05 06:00:30;;;;;;;20.20;9.80;;;;;;;;;;5023988;28;20029;-46
2022/03/05 06:02:56;;;;;;;27.65;9.50;;;;;;;;;;5025520;28;20028;-46
2022/03/05 06:05:21;;;;;;;22.00;9.65;;;;;;;;;;5027287;28;20032;-45
2022/03/05 06:07:46;;;;;;;26.20;9.77;;;;;;;;;;5025717;28;20112;-48
2022/03/05 06:10:12;;;;;;;22.75;9.43;;;;;;;;;;5023902;28;20049;-47
2022/03/05 06:12:37;;;;;;;25.42;10.02;;;;;;;;;;5026564;28;20158;-50
2022/03/05 06:15:04;;;;;;;21.83;9.57;;;;;;;;;;5024380;28;20119;-51
2022/03/05 06:17:30;;;;;;;24.17;10.25;;;;;;;;;;5024870;28;20021;-46
2022/03/05 06:19:56;;;;;;;20.40;9.15;;;;;;;;;;5024610;28;20102;-49
2022/03/05 06:22:24;;;;;;;23.88;9.15;;;;;;;;;;5025324;28;20025;-46
2022/03/05 06:24:49;;;;;;;19.92;9.38;;;;;;;;;;5026075;28;20381;-47
2022/03/05 06:27:15;;;;;;;20.13;9.32;;;;;;;;;;5024865;28;20037;-49
2022/03/05 06:29:40;;;;;;;22.30;9.80;;;;;;;;;;5025038;28;20044;-50
2022/03/05 06:32:06;;;;;;;19.15;9.65;;;;;;;;;;5023973;28;20036;-49
2022/03/05 06:34:31;;;;;;;21.23;8.95;;;;;;;;;;5025624;28;20525;-45
2022/03/05 06:36:57;;;;;;;23.77;9.50;;;;;;;;;;5025017;28;20064;-51
2022/03/05 06:39:23;;;;;;;25.55;9.45;;;;;;;;;;5022540;28;20540;-54
2022/03/05 06:41:49;;;;;;;27.88;9.93;;;;;;;;;;5024751;28;20036;-44
2022/03/05 06:44:15;;;;;;;23.85;10.68;;;;;;;;;;5025209;28;20653;-46
2022/03/05 06:46:41;;;;;;;22.50;9.15;;;;;;;;;;5024116;28;20021;-45
2022/03/05 06:49:06;;;;;;;22.30;9.90;;;;;;;;;;5025963;28;20509;-46
2022/03/05 06:51:31;;;;;;;26.00;10.10;;;;;;;;;;5026340;28;20424;-49
2022/03/05 06:53:57;;;;;;;23.88;9.82;;;;;;;;;;5023352;28;20072;-47
2022/03/05 06:56:22;;;;;;;24.50;10.25;;;;;;;;;;5026276;28;20461;-47
2022/03/05 06:58:47;;;;;;;21.48;9.98;;;;;;;;;;5023082;28;20029;-53
2022/03/05 07:01:13;;;;;;;25.63;10.43;;;;;;;;;;5024907;28;20033;-51
2022/03/05 07:03:38;;;;;;;22.63;9.68;;;;;;;;;;5021340;28;20053;-48
2022/03/05 07:06:04;;;;;;;24.25;9.88;;;;;;;;;;5025260;28;20044;-48
2022/03/05 07:08:29;;;;;;;25.13;10.00;;;;;;;;;;5025612;28;20485;-49
2022/03/05 07:10:54;;;;;;;21.38;10.38;;;;;;;;;;5027411;28;20032;-48
2022/03/05 07:13:20;;;;;;;23.25;9.52;;;;;;;;;;5026641;28;20075;-48
2022/03/05 07:15:45;;;;;;;23.52;10.63;;;;;;;;;;5028745;28;20041;-45
2022/03/05 07:18:11;;;;;;;23.20;10.15;;;;;;;;;;5023648;28;20021;-46
2022/03/05 07:20:36;;;;;;;24.88;10.40;;;;;;;;;;5028343;28;20032;-44
2022/03/05 07:23:04;;;;;;;25.67;10.90;;;;;;;;;;5028353;28;20110;-52
2022/03/05 07:25:36;;;;;;;24.02;10.43;;;;;;;;;;5028349;28;20057;-49
2022/03/05 07:28:01;;;;;;;23.27;11.13;;;;;;;;;;5029347;28;20041;-48
2022/03/05 07:30:27;;;;;;;24.52;11.57;;;;;;;;;;5028740;28;20033;-47
2022/03/05 07:32:52;;;;;;;24.75;11.00;;;;;;;;;;5026875;28;20029;-45
2022/03/05 07:35:18;;;;;;;23.10;10.98;;;;;;;;;;5028494;28;20116;-51
2022/03/05 07:37:43;;;;;;;22.73;11.00;;;;;;;;;;5027067;28;20033;-49
2022/03/05 07:40:09;;;;;;;23.50;10.80;;;;;;;;;;5026836;28;20036;-46
2022/03/05 07:42:34;;;;;;;25.65;10.98;;;;;;;;;;5027630;28;20463;-44
2022/03/05 07:45:00;;;;;;;23.40;10.88;;;;;;;;;;5027963;28;20049;-44
2022/03/05 07:47:25;;;;;;;21.77;10.38;;;;;;;;;;5027027;28;20029;-47
2022/03/05 07:49:51;;;;;;;21.08;11.50;;;;;;;;;;5027725;28;20037;-47
2022/03/05 07:52:16;;;;;;;26.17;11.00;;;;;;;;;;5028693;28;20112;-51
2022/03/05 07:54:42;;;;;;;20.77;10.38;;;;;;;;;;5028722;28;20457;-46
2022/03/05 07:57:07;;;;;;;25.33;10.77;;;;;;;;;;5028250;28;20033;-48
2022/03/05 07:59:33;;;;;;;24.83;11.32;;;;;;;;;;5028411;28;20031;-48
2022/03/05 08:01:58;;;;;;;24.90;11.43;;;;;;;;;;5027243;28;20025;-52
2022/03/05 08:04:23;;;;;;;26.05;11.10;;;;;;;;;;5029153;28;20036;-49
2022/03/05 08:06:49;;;;;;;23.25;10.10;;;;;;;;;;5027031;28;20059;-47
2022/03/05 08:09:14;;;;;;;22.65;11.30;;;;;;;;;;5026688;28;20025;-43
2022/03/05 08:11:39;;;;;;;23.85;10.02;;;;;;;;;;5027496;28;20033;-49
2022/03/05 08:14:05;;;;;;;24.77;10.15;;;;;;;;;;5025992;28;20044;-49
2022/03/05 08:16:31;;;;;;;23.58;11.20;;;;;;;;;;5027394;28;20497;-50
2022/03/05 08:18:58;;;;;;;25.98;10.93;;;;;;;;;;5025788;28;20068;-45
2022/03/05 08:21:26;;;;;;;24.48;11.05;;;;;;;;;;5028186;28;20074;-48
2022/03/05 08:23:52;;;;;;;20.45;9.77;;;;;;;;;;5026201;28;20495;-47
2022/03/05 08:26:18;;;;;;;21.38;10.65;;;;;;;;;;5027081;28;20033;-48
2022/03/05 08:28:44;;;;;;;24.65;10.63;;;;;;;;;;5027653;28;20476;-49
2022/03/05 08:31:11;;;;;;;23.42;10.98;;;;;;;;;;5027330;28;20064;-45
2022/03/05 08:33:38;;;;;;;26.23;11.35;;;;;;;;;;5026123;28;20064;-49
2022/03/05 08:36:03;;;;;;;24.95;11.55;;;;;;;;;;5027735;28;20036;-50
2022/03/05 08:38:31;;;;;;;22.42;11.27;;;;;;;;;;5024200;28;20029;-46
2022/03/05 08:40:58;;;;;;;23.45;11.15;;;;;;;;;;5023968;28;20116;-48
2022/03/05 08:43:24;;;;;;;20.73;10.45;;;;;;;;;;5026193;28;20037;-50
2022/03/05 08:45:49;;;;;;;21.58;10.48;;;;;;;;;;5026318;28;20036;-50
2022/03/05 08:48:14;;;;;;;22.15;9.88;;;;;;;;;;5027012;28;20025;-47
2022/03/05 08:50:40;;;;;;;19.92;9.90;;;;;;;;;;5026436;28;20017;-49
2022/03/05 08:53:05;;;;;;;20.48;9.82;;;;;;;;;;5028574;28;20215;-45
2022/03/05 08:55:30;;;;;;;21.85;10.73;;;;;;;;;;5026622;28;20025;-46
2022/03/05 08:57:56;;;;;;;21.90;11.30;;;;;;;;;;5027971;28;20068;-47
2022/03/05 09:00:21;;;;;;;20.45;10.70;;;;;;;;;;5026476;28;20535;-46
2022/03/05 09:02:47;;;;;;;27.13;11.07;;;;;;;;;;5028434;28;20033;-48
2022/03/05 09:05:14;;;;;;;21.38;10.68;;;;;;;;;;5026557;28;20167;-50
2022/03/05 09:07:40;;;;;;;19.75;10.75;;;;;;;;;;5026895;28;20025;-51
2022/03/05 09:10:07;;;;;;;23.00;11.02;;;;;;;;;;5025845;28;20108;-51
2022/03/05 09:12:32;;;;;;;22.13;10.75;;;;;;;;;;5026114;28;20073;-49
2022/03/05 09:14:58;;;;;;;21.40;10.60;;;;;;;;;;5027262;28;20412;-47
2022/03/05 09:17:23;;;;;;;21.17;10.30;;;;;;;;;;5026735;28;20455;-47
2022/03/05 09:19:49;;;;;;;22.50;10.63;;;;;;;;;;5026940;28;20318;-46
2022/03/05 09:22:14;;;;;;;22.35;10.88;;;;;;;;;;5026784;28;20037;-50
2022/03/05 09:24:40;;;;;;;25.30;11.65;;;;;;;;;;5026270;28;20029;-47
2022/03/05 09:27:06;;;;;;;24.95;11.50;;;;;;;;;;5026457;28;20140;-44
2022/03/05 09:29:31;;;;;;;18.92;10.35;;;;;;;;;;5026791;28;20029;-49
2022/03/05 09:31:57;;;;;;;20.83;10.77;;;;;;;;;;5024573;28;20068;-49
2022/03/05 09:34:22;;;;;;;23.45;10.80;;;;;;;;;;5026278;28;20083;-44
2022/03/05 09:36:48;;;;;;;22.63;10.68;;;;;;;;;;5024408;28;20037;-48
2022/03/05 09:39:14;;;;;;;26.52;11.00;;;;;;;;;;5026327;28;20029;-48
2022/03/05 09:41:39;;;;;;;23.73;11.13;;;;;;;;;;5025842;28;20037;-45
2022/03/05 09:44:06;;;;;;;20.15;10.07;;;;;;;;;;5027263;28;20036;-46
2022/03/05 09:46:32;;;;;;;22.88;11.45;;;;;;;;;;5025816;28;20036;-44
2022/03/05 09:48:58;;;;;;;21.67;11.00;;;;;;;;;;5024806;28;20029;-48
2022/03/05 09:51:24;;;;;;;19.35;10.13;;;;;;;;;;5025203;28;20030;-44
2022/03/05 09:53:53;;;;;;;28.55;11.65;;;;;;;;;;5026068;28;20400;-46
2022/03/05 09:56:19;;;;;;;21.95;10.77;;;;;;;;;;5024842;28;20037;-49
2022/03/05 09:58:44;;;;;;;24.25;10.52;;;;;;;;;;5025859;28;20079;-51
2022/03/05 10:01:10;;;;;;;22.65;10.52;;;;;;;;;;5026796;28;20113;-48
2022/03/05 10:03:46;;;;;;;21.58;10.32;;;;;;;;;;5024434;28;20056;-46
2022/03/05 10:06:17;;;;;;;20.27;9.10;;;;;;;;;;5028060;28;20033;-45
2022/03/05 10:08:43;;;;;;;23.27;10.90;;;;;;;;;;5025631;28;20562;-52
2022/03/05 10:11:11;;;;;;;21.33;10.68;;;;;;;;;;5024851;28;20033;-46
2022/03/05 10:13:38;;;;;;;25.70;10.85;;;;;;;;;;5025328;28;20029;-51
2022/03/05 10:16:06;;;;;;;20.38;10.05;;;;;;;;;;5025916;28;20032;-48
2022/03/05 10:18:34;;;;;;;19.48;9.90;;;;;;;;;;5025156;28;20055;-46
2022/03/05 10:21:02;;;;;;;19.48;9.88;;;;;;;;;;5022262;28;20560;-49
2022/03/05 10:23:33;;;;;;;22.05;9.85;;;;;;;;;;5026067;28;20037;-47
2022/03/05 10:26:01;;;;;;;20.65;9.30;;;;;;;;;;5023930;28;20033;-51
2022/03/05 10:28:27;;;;;;;28.08;10.88;;;;;;;;;;5026023;28;20037;-46
2022/03/05 10:31:01;;;;;;;20.00;8.77;;;;;;;;;;5023537;28;20060;-48
2022/03/05 10:33:27;;;;;;;19.33;8.63;;;;;;;;;;5024964;28;20029;-47
2022/03/05 10:35:53;;;;;;;20.15;9.40;;;;;;;;;;5024184;28;20044;-45
2022/03/05 10:38:25;;;;;;;18.08;8.70;;;;;;;;;;5026402;28;20538;-46
2022/03/05 10:40:55;;;;;;;17.92;8.75;;;;;;;;;;5024897;28;20033;-47
2022/03/05 10:43:21;;;;;;;18.08;8.85;;;;;;;;;;5024565;28;20366;-49
2022/03/05 10:45:58;;;;;;;15.82;8.80;;;;;;;;;;5024178;28;20087;-48
2022/03/05 10:48:29;;;;;;;17.17;8.30;;;;;;;;;;5023919;28;20101;-47
2022/03/05 10:51:09;;;;;;;17.27;8.73;;;;;;;;;;5026563;28;20389;-51
2022/03/05 10:53:39;;;;;;;13.93;7.85;;;;;;;;;;5024933;28;20037;-50
2022/03/05 10:56:24;;;;;;;16.02;8.13;;;;;;;;;;5026084;28;20052;-51
2022/03/05 10:59:09;;;;;;;16.45;8.60;;;;;;;;;;5026394;28;20025;-48
2022/03/05 11:01:41;;;;;;;14.88;8.57;;;;;;;;;;5021647;28;20611;-47
2022/03/05 11:04:08;;;;;;;18.58;8.15;;;;;;;;;;5025486;28;20136;-52
2022/03/05 11:06:37;;;;;;;14.57;8.15;;;;;;;;;;5025595;28;20100;-47
2022/03/05 11:09:04;;;;;;;14.38;8.55;;;;;;;;;;5026103;28;20051;-48
2022/03/05 11:11:31;;;;;;;14.57;8.35;;;;;;;;;;5026149;28;20038;-51
2022/03/05 11:13:58;;;;;;;14.90;8.45;;;;;;;;;;5023233;28;20167;-50
2022/03/05 11:16:25;;;;;;;21.25;10.10;;;;;;;;;;5024833;28;20350;-45
2022/03/05 11:18:51;;;;;;;13.05;7.45;;;;;;;;;;5023869;28;20503;-47
2022/03/05 11:21:17;;;;;;;15.63;7.45;;;;;;;;;;5025561;28;20017;-48
2022/03/05 11:23:44;;;;;;;14.23;7.72;;;;;;;;;;5023632;28;20029;-49
2022/03/05 11:26:11;;;;;;;15.68;7.63;;;;;;;;;;5026037;28;20507;-47
2022/03/05 11:28:38;;;;;;;15.27;7.72;;;;;;;;;;5023934;28;20029;-49
2022/03/05 11:31:24;;;;;;;13.85;6.80;;;;;;;;;;5025121;28;20113;-49
2022/03/05 11:33:51;;;;;;;15.45;7.53;;;;;;;;;;5024747;28;20026;-48
2022/03/05 11:36:38;;;;;;;15.73;8.18;;;;;;;;;;5023062;28;20377;-51
2022/03/05 11:39:08;;;;;;;19.08;8.65;;;;;;;;;;5024071;28;20029;-49
2022/03/05 11:41:56;;;;;;;16.60;8.13;;;;;;;;;;5024412;28;20459;-46
2022/03/05 11:44:24;;;;;;;13.80;7.20;;;;;;;;;;5024805;28;20037;-51
2022/03/05 11:47:18;;;;;;;12.57;6.78;;;;;;;;;;5024389;28;20041;-51
2022/03/05 11:49:59;;;;;;;13.48;6.82;;;;;;;;;;5023707;28;20029;-49
2022/03/05 11:52:39;;;;;;;16.30;7.25;;;;;;;;;;5025156;28;20068;-50
2022/03/05 11:55:11;;;;;;;13.77;6.95;;;;;;;;;;5026081;28;20033;-50
2022/03/05 11:58:06;;;;;;;15.25;7.90;;;;;;;;;;5025828;28;20029;-49
2022/03/05 12:00:33;;;;;;;12.88;7.35;;;;;;;;;;5026719;28;20033;-51
2022/03/05 12:03:00;;;;;;;16.63;8.27;;;;;;;;;;5027418;28;20156;-52
2022/03/05 12:05:37;;;;;;;16.02;7.72;;;;;;;;;;5027118;28;20399;-49
2022/03/05 12:08:07;;;;;;;17.90;7.65;;;;;;;;;;5026373;28;20040;-48
2022/03/05 12:10:38;;;;;;;14.75;7.78;;;;;;;;;;5026532;28;20021;-49
2022/03/05 12:13:06;;;;;;;15.45;7.60;;;;;;;;;;5026058;28;20067;-51
2022/03/05 12:15:43;;;;;;;13.38;7.40;;;;;;;;;;5027829;28;20036;-52
2022/03/05 12:18:14;;;;;;;16.92;7.63;;;;;;;;;;5026940;28;20473;-47
2022/03/05 12:20:43;;;;;;;13.70;7.15;;;;;;;;;;5029329;28;20694;-47
2022/03/05 12:23:16;;;;;;;13.27;7.30;;;;;;;;;;5026998;28;20507;-44
2022/03/05 12:25:44;;;;;;;11.68;6.80;;;;;;;;;;5025667;28;20025;-48
2022/03/05 12:28:23;;;;;;;13.23;7.03;;;;;;;;;;5026645;28;20030;-49
2022/03/05 12:30:48;;;;;;;18.88;7.00;;;;;;;;;;5029944;28;20030;-50
2022/03/05 12:33:16;;;;;;;17.63;7.53;;;;;;;;;;5026909;28;20048;-52
2022/03/05 12:35:43;;;;;;;10.23;6.30;;;;;;;;;;5027168;28;20525;-50
2022/03/05 12:38:10;;;;;;;11.75;6.20;;;;;;;;;;5025070;28;20025;-49
2022/03/05 12:40:38;;;;;;;12.95;6.80;;;;;;;;;;5026809;28;20071;-50
2022/03/05 12:43:05;;;;;;;12.23;6.10;;;;;;;;;;5023842;28;20036;-50
2022/03/05 12:45:34;;;;;;;13.75;6.88;;;;;;;;;;5027343;28;20532;-44
2022/03/05 12:48:10;;;;;;;12.02;6.60;;;;;;;;;;5026121;28;20041;-48
2022/03/05 12:50:37;;;;;;;10.50;6.03;;;;;;;;;;5026752;28;20033;-45
2022/03/05 12:53:12;;;;;;;11.48;6.13;;;;;;;;;;5024936;28;20076;-48
2022/03/05 12:55:43;;;;;;;10.35;5.55;;;;;;;;;;5026032;28;20021;-50
2022/03/05 12:58:12;;;;;;;9.10;6.20;;;;;;;;;;5023647;28;20091;-47
2022/03/05 13:00:39;;;;;;;9.82;6.35;;;;;;;;;;5024087;28;20028;-50
2022/03/05 13:03:06;;;;;;;10.68;6.32;;;;;;;;;;5027731;28;20551;-47
2022/03/05 13:05:33;;;;;;;12.32;6.57;;;;;;;;;;5025438;28;20638;-48
2022/03/05 13:07:58;;;;;;;12.23;6.78;;;;;;;;;;5027085;28;20029;-50
2022/03/05 13:10:24;;;;;;;12.75;6.63;;;;;;;;;;5025388;28;20111;-45
2022/03/05 13:12:52;;;;;;;13.02;6.72;;;;;;;;;;5027779;28;20029;-47
2022/03/05 13:15:36;;;;;;;10.20;5.90;;;;;;;;;;5026391;28;20184;-49
2022/03/05 13:18:05;;;;;;;12.63;6.35;;;;;;;;;;5026106;28;20496;-50
2022/03/05 13:20:31;;;;;;;10.25;6.18;;;;;;;;;;5025646;28;20382;-51
2022/03/05 13:22:57;;;;;;;10.90;6.40;;;;;;;;;;5029659;28;20060;-48
2022/03/05 13:25:22;;;;;;;11.02;6.40;;;;;;;;;;5024508;28;20475;-49
2022/03/05 13:27:48;;;;;;;12.05;6.85;;;;;;;;;;5026462;28;20653;-47
2022/03/05 13:30:18;;;;;;;11.90;7.22;;;;;;;;;;5022893;28;20071;-46
2022/03/05 13:32:49;;;;;;;12.57;6.80;;;;;;;;;;5026536;28;20469;-49
2022/03/05 13:35:16;;;;;;;11.50;6.63;;;;;;;;;;5024226;28;20467;-50
2022/03/05 13:37:45;;;;;;;12.60;5.85;;;;;;;;;;5024689;28;20068;-51
2022/03/05 13:40:12;;;;;;;11.10;5.20;;;;;;;;;;5026588;28;20108;-48
2022/03/05 13:42:38;;;;;;;9.32;5.35;;;;;;;;;;5025091;28;20443;-47
2022/03/05 13:45:09;;;;;;;9.35;4.95;;;;;;;;;;5027164;28;20029;-53
2022/03/05 13:47:43;;;;;;;9.98;4.80;;;;;;;;;;5024179;28;20511;-45
2022/03/05 13:50:10;;;;;;;8.73;5.43;;;;;;;;;;5025469;28;20035;-47
2022/03/05 13:52:35;;;;;;;8.35;4.80;;;;;;;;;;5024386;28;20037;-47
2022/03/05 13:55:13;;;;;;;11.00;4.55;;;;;;;;;;5025322;28;20099;-49
2022/03/05 13:57:44;;;;;;;8.10;4.70;;;;;;;;;;5025617;28;20048;-49
2022/03/05 14:00:14;;;;;;;8.50;4.55;;;;;;;;;;5027019;28;20489;-51
2022/03/05 14:02:40;;;;;;;7.97;4.47;;;;;;;;;;5023664;28;20029;-48
2022/03/05 14:05:12;;;;;;;7.35;4.60;;;;;;;;;;5026390;28;20045;-45
2022/03/05 14:07:47;;;;;;;8.77;5.22;;;;;;;;;;5023782;28;20385;-50
2022/03/05 14:10:15;;;;;;;7.97;4.75;;;;;;;;;;5024515;28;20041;-49
2022/03/05 14:12:46;;;;;;;8.20;4.70;;;;;;;;;;5024085;28;20044;-46
2022/03/05 14:15:11;;;;;;;10.23;4.88;;;;;;;;;;5025133;28;20033;-44
2022/03/05 14:17:40;;;;;;;10.63;5.00;;;;;;;;;;5023498;28;20022;-46
2022/03/05 14:20:22;;;;;;;7.13;4.78;;;;;;;;;;5026179;28;20559;-49
2022/03/05 14:22:55;;;;;;;10.05;4.72;;;;;;;;;;5022993;28;20034;-48
2022/03/05 14:25:23;;;;;;;;;;;;;;;;;;5025718;28;20021;-47
2022/03/05 14:27:52;;;;;;;7.85;4.25;;;;;;;;;;5022828;28;19959;-49
2022/03/05 14:30:18;;;;;;;7.90;4.30;;;;;;;;;;5025122;28;20034;-47
2022/03/05 14:32:43;;;;;;;9.63;4.50;;;;;;;;;;5054879;28;20033;-46
2022/03/05 14:35:09;;;;;;;7.25;4.47;;;;;;;;;;5025507;28;20037;-49